Terminal Aerodrome Forecast
Issued by NWS Jackson, MS

Home | Current Version | Previous Version | Text Only | Print | Product List | Glossary On
Versions: 1 2 3 4 5 6 7 8 9 10 11 12 13 14 15
000
FTUS44 KJAN 261238 AAA
TAFMEI
TAF AMD
KMEI 261238Z 2613/2712 15003KT P6SM -SHRA BKN050 OVC100
     FM261700 18006KT P6SM VCSH OVC035
     FM270400 15004KT P6SM OVC015
     FM271000 16003KT P6SM OVC007=

USA.gov is the U.S. government's official web portal to all federal, state and local government web resources and services.